createdAt,value
2019-06-08T00:03:49.639Z,96.40
2019-06-08T00:09:51.219Z,97.00
2019-06-08T00:15:52.797Z,93.70
2019-06-08T00:21:55.936Z,94.20
2019-06-08T00:27:57.545Z,94.40
2019-06-08T00:34:00.998Z,95.10
2019-06-08T00:40:06.042Z,95.20
2019-06-08T00:46:07.643Z,95.10
2019-06-08T00:52:10.343Z,95.50
2019-06-08T00:58:11.973Z,95.20
2019-06-08T01:04:13.680Z,95.40
2019-06-08T01:10:16.291Z,95.00
2019-06-08T01:16:18.818Z,94.40
2019-06-08T01:22:21.627Z,94.00
2019-06-08T01:28:24.137Z,94.50
2019-06-08T01:34:27.006Z,95.10
2019-06-08T01:40:29.561Z,95.40
2019-06-08T01:46:32.427Z,95.60
2019-06-08T01:52:34.637Z,95.40
2019-06-08T01:58:36.207Z,95.60
2019-06-08T02:04:37.762Z,95.60
2019-06-08T02:10:39.312Z,95.90
2019-06-08T02:16:40.817Z,96.20
2019-06-08T02:22:42.391Z,96.00
2019-06-08T02:28:43.905Z,96.30
2019-06-08T02:34:45.373Z,96.10
2019-06-08T02:40:47.011Z,95.60
2019-06-08T02:46:48.623Z,95.70
2019-06-08T02:52:50.928Z,95.50
2019-06-08T02:58:56.284Z,94.80
2019-06-08T03:05:01.060Z,94.30
2019-06-08T03:11:03.687Z,93.90
2019-06-08T03:17:06.329Z,94.10
2019-06-08T03:23:09.252Z,93.30
2019-06-08T03:29:10.996Z,93.50
2019-06-08T03:35:13.724Z,92.70
2019-06-08T03:41:15.303Z,93.30
2019-06-08T03:47:16.759Z,93.70
2019-06-08T03:53:18.321Z,93.00
2019-06-08T03:59:19.930Z,92.70
2019-06-08T04:05:21.624Z,91.80
2019-06-08T04:11:23.778Z,91.50
2019-06-08T04:17:26.431Z,91.40
2019-06-08T04:23:28.134Z,90.60
2019-06-08T04:29:29.754Z,89.80
2019-06-08T04:35:31.478Z,90.10
2019-06-08T04:41:33.076Z,90.60
2019-06-08T04:47:34.766Z,90.60
2019-06-08T04:53:38.565Z,91.00
2019-06-08T04:59:41.265Z,89.60
2019-06-08T05:05:45.197Z,90.80
2019-06-08T05:11:47.501Z,89.70
2019-06-08T05:17:49.713Z,89.80
2019-06-08T05:23:58.503Z,90.00
2019-06-08T05:29:55.029Z,90.00
2019-06-08T05:35:56.816Z,89.40
2019-06-08T05:41:58.542Z,84.70
2019-06-08T05:48:00.243Z,82.50
2019-06-08T05:54:03.070Z,81.30
2019-06-08T06:00:11.000Z,79.40
2019-06-08T06:06:14.255Z,80.10
2019-06-08T06:12:15.824Z,78.60
2019-06-08T06:18:17.497Z,78.70
2019-06-08T06:24:19.282Z,78.20
2019-06-08T06:30:21.106Z,77.60
2019-06-08T06:36:22.929Z,76.80
2019-06-08T06:42:25.187Z,76.20
2019-06-08T06:48:27.223Z,75.90
2019-06-08T06:54:28.847Z,74.30
2019-06-08T07:00:32.237Z,71.20
2019-06-08T07:06:33.930Z,73.40
2019-06-08T07:12:35.875Z,72.10
2019-06-08T07:18:37.646Z,67.00
2019-06-08T07:24:39.207Z,69.70
2019-06-08T07:30:43.795Z,66.60
2019-06-08T07:36:45.369Z,66.80
2019-06-08T07:42:47.858Z,65.70
2019-06-08T07:48:50.501Z,61.40
2019-06-08T07:54:52.851Z,60.60
2019-06-08T08:01:02.367Z,59.10
2019-06-08T08:06:59.231Z,62.00
2019-06-08T08:13:03.041Z,61.00
2019-06-08T08:19:04.814Z,61.20
2019-06-08T08:25:08.505Z,61.80
2019-06-08T08:31:11.364Z,61.20
2019-06-08T08:37:13.895Z,61.10
2019-06-08T08:43:17.677Z,59.70
2019-06-08T08:49:19.228Z,59.70
2019-06-08T08:55:21.151Z,57.70
2019-06-08T09:01:23.873Z,59.60
2019-06-08T09:07:27.514Z,57.60
2019-06-08T09:13:29.174Z,57.10
2019-06-08T09:19:30.904Z,57.40
2019-06-08T09:25:32.815Z,56.90
2019-06-08T09:31:34.586Z,58.50
2019-06-08T09:37:40.787Z,56.00
2019-06-08T09:43:51.096Z,56.30
2019-06-08T09:49:50.685Z,54.70
2019-06-08T09:56:04.543Z,55.00
2019-06-08T10:02:13.089Z,55.70
2019-06-08T10:08:15.225Z,55.00
2019-06-08T10:14:18.734Z,54.30
2019-06-08T10:26:49.377Z,52.90
2019-06-08T10:32:51.173Z,52.60
2019-06-08T10:38:53.125Z,52.90
2019-06-08T10:44:54.852Z,54.20
2019-06-08T10:50:58.545Z,51.60
2019-06-08T10:57:04.133Z,55.50
2019-06-08T11:03:06.716Z,50.50
2019-06-08T11:09:12.683Z,51.00
2019-06-08T11:15:11.930Z,50.40
2019-06-08T11:21:13.782Z,46.80
2019-06-08T11:27:18.685Z,47.40
2019-06-08T11:33:20.345Z,49.70
2019-06-08T11:39:22.160Z,49.60
2019-06-08T11:45:24.095Z,47.50
2019-06-08T11:51:29.623Z,47.90
2019-06-08T11:57:31.489Z,49.40
2019-06-08T12:03:33.487Z,51.30
2019-06-08T12:09:35.880Z,51.40
2019-06-08T12:15:38.581Z,51.30
2019-06-08T12:21:40.204Z,50.40
2019-06-08T12:27:42.038Z,49.00
2019-06-08T12:33:48.627Z,47.80
2019-06-08T12:39:49.398Z,49.10
2019-06-08T12:45:54.739Z,48.00
2019-06-08T12:51:58.370Z,49.50
2019-06-08T12:58:03.566Z,50.10
2019-06-08T13:04:09.513Z,47.20
2019-06-08T13:10:11.303Z,48.60
2019-06-08T13:16:14.598Z,50.10
2019-06-08T13:22:19.325Z,48.60
2019-06-08T13:28:24.999Z,49.90
2019-06-08T13:34:24.438Z,50.00
2019-06-08T13:40:27.228Z,50.10
2019-06-08T13:46:28.941Z,49.50
2019-06-08T13:52:31.090Z,46.30
2019-06-08T13:58:33.315Z,48.60
2019-06-08T14:04:39.454Z,49.00
2019-06-08T14:10:39.600Z,49.30
2019-06-08T14:22:39.037Z,48.10
2019-06-08T14:28:40.607Z,47.70
2019-06-08T14:34:42.239Z,46.90
2019-06-08T14:40:47.558Z,49.10
2019-06-08T14:46:49.359Z,49.00
2019-06-08T14:52:50.937Z,50.20
2019-06-08T14:58:52.520Z,50.80
2019-06-08T15:04:54.140Z,48.30
2019-06-08T15:10:57.840Z,46.00
2019-06-08T15:16:59.426Z,46.30
2019-06-08T15:23:00.923Z,47.30
2019-06-08T15:29:02.840Z,45.80
2019-06-08T15:35:05.077Z,44.60
2019-06-08T15:41:07.841Z,47.10
2019-06-08T15:47:09.381Z,44.30
2019-06-08T15:53:10.905Z,43.50
2019-06-08T15:59:12.363Z,43.30
2019-06-08T16:05:14.087Z,41.10
2019-06-08T16:11:16.005Z,42.80
2019-06-08T16:17:17.900Z,44.20
2019-06-08T16:23:19.610Z,43.40
2019-06-08T16:29:21.396Z,40.30
2019-06-08T16:35:23.106Z,36.90
2019-06-08T16:41:24.880Z,36.20
2019-06-08T16:47:27.021Z,39.00
2019-06-08T16:53:34.134Z,37.50
2019-06-08T16:59:38.585Z,36.80
2019-06-08T17:05:41.569Z,40.40
2019-06-08T17:11:43.778Z,37.80
2019-06-08T17:17:45.669Z,35.90
2019-06-08T17:23:47.524Z,34.10
2019-06-08T17:29:49.286Z,32.40
2019-06-08T17:35:55.451Z,37.80
2019-06-08T17:41:57.149Z,40.20
2019-06-08T17:47:58.917Z,34.50
2019-06-08T17:54:02.596Z,32.70
2019-06-08T18:00:07.274Z,31.10
2019-06-08T18:06:09.707Z,30.00
2019-06-08T18:12:11.460Z,31.70
2019-06-08T18:18:13.213Z,33.70
2019-06-08T18:24:17.478Z,38.30
2019-06-08T18:30:21.874Z,45.80
2019-06-08T18:36:27.534Z,49.10
2019-06-08T18:42:29.290Z,52.00
2019-06-08T18:48:33.512Z,52.80
2019-06-08T18:54:35.409Z,52.40
2019-06-08T19:00:41.939Z,53.10
2019-06-08T19:06:43.770Z,55.40
2019-06-08T19:12:48.144Z,55.80
2019-06-08T19:18:52.744Z,57.40
2019-06-08T19:24:54.420Z,56.90
2019-06-08T19:31:00.612Z,56.70
2019-06-08T19:37:02.227Z,58.00
2019-06-08T19:43:07.514Z,59.10
2019-06-08T19:49:09.347Z,60.30
2019-06-08T19:55:14.287Z,60.10
2019-06-08T20:01:17.961Z,61.60
2019-06-08T20:07:19.113Z,61.30
2019-06-08T20:13:23.290Z,60.50
2019-06-08T20:19:25.016Z,61.20
2019-06-08T20:25:27.869Z,61.90
2019-06-08T20:31:29.734Z,62.50
2019-06-08T20:37:39.296Z,62.00
2019-06-08T20:43:42.608Z,61.30
2019-06-08T20:49:48.908Z,62.70
2019-06-08T20:55:50.804Z,63.20
2019-06-08T21:01:54.378Z,62.40
2019-06-08T21:08:03.344Z,64.50
2019-06-08T21:14:05.168Z,64.70
2019-06-08T21:20:08.539Z,65.60
2019-06-08T21:26:10.280Z,67.50
2019-06-08T21:32:13.301Z,71.60
2019-06-08T21:38:23.381Z,73.40
2019-06-08T21:44:18.112Z,72.10
2019-06-08T21:50:19.606Z,74.50
2019-06-08T21:56:21.106Z,74.70
2019-06-08T22:02:22.775Z,75.80
2019-06-08T22:08:24.808Z,76.20
2019-06-08T22:14:27.320Z,73.70
2019-06-08T22:20:29.258Z,74.80
2019-06-08T22:26:30.903Z,74.80
2019-06-08T22:32:32.796Z,77.20
2019-06-08T22:38:37.293Z,77.30
2019-06-08T22:44:38.942Z,77.20
2019-06-08T22:50:40.638Z,77.70
2019-06-08T22:56:42.760Z,77.10
2019-06-08T23:02:45.803Z,78.00
2019-06-08T23:08:48.101Z,78.50
2019-06-08T23:14:49.933Z,79.20
2019-06-08T23:20:51.607Z,80.00
2019-06-08T23:26:53.110Z,80.80
2019-06-08T23:32:56.521Z,81.10
2019-06-08T23:38:59.145Z,83.50
2019-06-08T23:45:02.181Z,86.30
2019-06-08T23:51:07.730Z,87.40
2019-06-08T23:57:10.107Z,89.90
